Home   Weather   Canada   Oshawa   Past weeks
Flag for Canada

Past Weather in Oshawa, Ontario, Canada — Yesterday and Last 2 Weeks

Currently: 70 °F. Partly sunny. (Weather station: Oshawa, Canada). See more current weather

Past Weather in Oshawa — Graph

°F

Oshawa Temperature Yesterday

Maximum temperature yesterday: 70 °F (at 11:19 am)
Minimum temperature yesterday: 64 °F (at 1:00 pm)
Average temperature yesterday: 67 °F

High & Low Weather Summary for the Past Weeks

 TemperatureHumidityPressure
High88 °F (Jun 22, 3:07 pm)100% (Jul 5, 1:15 pm)30.23 "Hg (Jul 5, 1:15 pm)
Low48 °F (Jun 28, 5:00 am)32% (Jun 24, 6:00 pm)29.74 "Hg (Jul 5, 6:38 pm)
Average68 °F67%29.98 "Hg
* Reported Jun 21 12:00 pm — Jul 6 12:00 pm, Oshawa. Weather by CustomWeather, © 2022

Note: Actual official high and low records may vary slightly from our data, if they occured in-between our weather recording intervals... More about our weather records

Oshawa Weather History for the Previous 24 Hours

Scroll right to see more
 ConditionsComfort  
Time TempWeatherWind HumidityBarometerVisibility
12:00 pm
Wed, Jul 6
70 °FPartly sunny.13 mph69%29.99 "Hg9 mi
11:00 am68 °FOvercast.7 mph73%29.98 "Hg9 mi
10:57 am68 °FOvercast.8 mph73%29.98 "Hg9 mi
10:00 am66 °FMostly cloudy.12 mph78%29.97 "Hg9 mi
9:59 am66 °FMostly cloudy.13 mph78%29.96 "Hg9 mi
9:15 am66 °FMostly cloudy.8 mph78%29.96 "Hg9 mi
9:00 am66 °FOvercast.12 mph83%29.95 "Hg9 mi
8:00 am68 °FScattered clouds.12 mph78%29.93 "Hg9 mi
7:57 am68 °FScattered clouds.8 mph78%29.93 "Hg9 mi
7:00 am64 °FSunny.5 mph88%29.93 "Hg9 mi
6:00 am64 °FScattered clouds.5 mph88%29.89 "Hg9 mi
5:00 am64 °FClear.8 mph88%29.88 "Hg9 mi
4:19 am64 °FPartly cloudy.9 mph88%29.87 "Hg9 mi
4:00 am64 °FOvercast.9 mph88%29.88 "Hg9 mi
3:00 am64 °FPassing clouds.6 mph94%29.87 "Hg9 mi
2:51 am64 °FPassing clouds.6 mph94%29.86 "Hg9 mi
2:34 am64 °FPassing clouds.7 mph88%29.85 "Hg9 mi
2:17 am63 °FPassing clouds.6 mph94%29.85 "Hg9 mi
2:00 am63 °FPassing clouds.3 mph94%29.84 "Hg9 mi
1:00 am64 °FClear.6 mph88%29.85 "Hg9 mi
12:24 am66 °FPassing clouds.7 mph88%29.84 "Hg9 mi
12:00 am66 °FPassing clouds.7 mph88%29.83 "Hg9 mi
11:17 pm
Tue, Jul 5
66 °FPassing clouds.13 mph88%29.82 "Hg9 mi
11:00 pm66 °FPassing clouds.9 mph88%29.81 "Hg9 mi
10:08 pm68 °FMostly cloudy.10 mph83%29.81 "Hg9 mi
9:11 pm68 °FMostly cloudy.13 mph88%29.78 "Hg9 mi
9:00 pm70 °FOvercast.12 mph83%29.78 "Hg9 mi
7:00 pm70 °FFog.No wind94%29.74 "Hg5 mi
6:38 pm70 °FFog.No wind94%29.74 "Hg5 mi
6:00 pm70 °FFog.No wind94%29.75 "Hg4 mi
5:00 pm68 °FFog.2 mph94%29.75 "Hg4 mi
4:23 pm66 °FFog.5 mph100%29.76 "Hg3 mi
3:49 pm66 °FFog.6 mph94%29.77 "Hg1 mi
3:00 pm66 °FLight rain. Fog.3 mph94%29.79 "Hg1 mi
2:00 pm64 °FLight rain. Fog.7 mph100%29.80 "Hg1 mi
1:15 pm64 °FLight rain. Fog.7 mph100%29.82 "Hg1 mi
1:00 pm64 °FLight rain. Fog.7 mph94%29.82 "Hg1 mi
Weather by CustomWeather, © 2022

See weather overview